Aérodrome :
LOGIN :

S'inscrire | Disclaimer

   EN    FR    IT 

 










Légende :    VFR   VFR Marginal   IFR   IFR Intensif   IFR Très Intensif
Visi : 
Plafond : 
>= 8 km
>= 3000ft
5 à 8 km
1000 à 3000 ft
1500m à 5 km
500 à 1000 ft
800 à 1500m
200 à 500 ft
< 800m
< 200 ft
Symboles :   Orages  Brouillard  Fortes neiges  Fortes précipitations  Vent > 20 kt
SIGMETs :   Divers  Orages  Givrage  Turbulence  Onde Orograph.  Cendres Volcan.






- Altitude de l'aérodrome : 33 ft
- Code IATA : PLQ


EYPA - Palanga

DERNIER METAR :
  • 300720Z AUTO 20004KT 160V280 9999 NCD 03/M04 Q1021

METARs EXPIRÉS :
  • 300650Z AUTO 18005KT 5000 NCD 02/M05 Q1021
  • 300620Z AUTO 17003KT 5000 NCD 00/M07 Q1021
  • 300550Z AUTO 17004KT 4800 NCD M02/M06 Q1021
  • 300520Z AUTO 15002KT 9999 NCD M04/M07 Q1021
  • 300450Z AUTO 15002KT 9999 NCD M06/M08 Q1021
  • 300420Z AUTO VRB02KT 9999 NCD M07/M08 Q1021

TAF TAF EYPA
Valide du 30 à 06h jusqu'au 31 à 06h UTC


300500Z 3006/3106 VRB02KT 8000 NSC
BECMG 3008/3010 30012KT BKN020
TEMPO 3010/3014 BKN015CB
TEMPO 3014/3018 36018G28KT 3000 SHSNRA BKN005 BKN015CB
TEMPO 3018/3022 36018G30KT 0800 +SHSNRA BKN005 BKN012CB
BECMG 3022/3023 02010KT
BECMG 3103/3104 NSC



MET'MAP, la Météo Aéronautique d'un coup d'oeil ! - Copyright ORBIFLY Décembre 2007 - Disclaimer

ORBIFLY MET'MAP TEAM :

Programmation & Développement : Alexandra Zaïnal
Sur une idée originale de : Baudouin d'Aumeries
Assistance à la programmation : Marc-Olivier Méhu
Soutien technique & logistique : Manuel Goepfert

Contact : metmap@orbifly.com




SOURCES & CREDITS :

   NOAA